Airfield :
LOGIN :

Register | Disclaimer

   EN    FR    IT 

 










Legend :    VFR   Marginal VFR   IFR   Intensive IFR   Very Intensive IFR
Visi :
Ceiling :
>= 8 km
>= 3000ft
5 to 8 km
1000 to 3000 ft
1500m to 5 km
500 to 1000 ft
800 to 1500m
200 to 500 ft
< 800m
< 200 ft
Symbols :   Thunderstorms  Fog  Heavy snow  Heavy precipitations  Wind > 20 kt
SIGMETs :     Misc.  Thunderstorms  Icing  Turbulence  Mountain Waves  Volcanic Ashes






- Airport Elevation : 231 ft
- IATA code : SZE


EGSY - Sheffield City Heliport

CURRENT METAR :
  • 021120Z 23009KT 190V270 9999 FEW015 BKN048 16/11 Q1017

EXPIRED METARs :
  • 021050Z 24007KT 9999 SCT011 BKN045 15/13 Q1017 RERA
  • 021020Z 25008KT 220V280 9999 FEW008 BKN042 14/11 Q1017
  • 020950Z 25008KT 9999 FEW008 BKN042 15/11 Q1017
  • 020920Z 27008KT 240V300 9999 -DZ FEW010 OVC039 14/12 Q1017
  • 020850Z 25009KT 9000 -RA FEW005 BKN020 14/13 Q1017

TAF TAF EGSY
Valid from the 02 at 12:00 until the 02 at 16:00 UTC


021103Z 0212/0216 25010KT 9999 SCT020
PROB30
TEMPO 0212/0216 7000 SHRA



MET'MAP, your aeronautical weather chart ! - Copyright ORBIFLY December 2007 - Disclaimer

ORBIFLY MET'MAP TEAM :

Programming & Development : Alexandra Zaïnal
Original concept : Baudouin d'Aumeries
Technical & hardware support : Manuel Goepfert
Assistance : Marc-Olivier Méhu




SOURCES & CREDITS :

   NOAA